createdAt,value
2022-10-01T00:01:08.686Z,6.44
2022-10-01T00:04:11.732Z,6.45
2022-10-01T00:07:15.743Z,6.57
2022-10-01T00:10:18.835Z,6.70
2022-10-01T00:13:22.299Z,6.77
2022-10-01T00:16:28.395Z,6.81
2022-10-01T00:19:31.644Z,6.84
2022-10-01T00:22:36.964Z,6.87
2022-10-01T00:25:40.786Z,6.94
2022-10-01T00:28:46.279Z,6.98
2022-10-01T00:31:49.813Z,6.95
2022-10-01T00:34:54.337Z,6.95
2022-10-01T00:37:59.254Z,6.96
2022-10-01T00:41:02.718Z,7.01
2022-10-01T00:44:36.403Z,7.07
2022-10-01T00:47:41.615Z,7.11
2022-10-01T00:50:45.908Z,7.08
2022-10-01T00:53:49.188Z,7.03
2022-10-01T00:56:54.833Z,7.17
2022-10-01T01:00:02.077Z,7.31
2022-10-01T01:03:06.578Z,7.42
2022-10-01T01:06:10.375Z,7.53
2022-10-01T01:09:13.590Z,7.61
2022-10-01T01:12:34.729Z,7.76
2022-10-01T01:15:58.379Z,7.86
2022-10-01T01:19:13.417Z,7.94
2022-10-01T01:22:20.307Z,8.07
2022-10-01T01:25:34.740Z,8.28
2022-10-01T01:28:42.280Z,8.45
2022-10-01T01:31:47.610Z,8.59
2022-10-01T01:34:53.747Z,8.81
2022-10-01T01:38:02.742Z,9.02
2022-10-01T01:41:07.387Z,9.24
2022-10-01T01:44:13.113Z,9.48
2022-10-01T01:47:17.415Z,9.78
2022-10-01T01:50:20.658Z,10.01
2022-10-01T01:53:24.523Z,10.10
2022-10-01T01:56:27.603Z,10.09
2022-10-01T01:59:33.754Z,10.21
2022-10-01T02:02:39.891Z,10.37
2022-10-01T02:05:54.230Z,10.35
2022-10-01T02:09:36.798Z,10.37
2022-10-01T02:12:52.691Z,10.29
2022-10-01T02:16:17.108Z,10.24
2022-10-01T02:19:40.971Z,10.17
2022-10-01T02:22:53.427Z,9.95
2022-10-01T02:26:03.082Z,9.75
2022-10-01T02:29:09.790Z,9.60
2022-10-01T02:32:14.682Z,9.52
2022-10-01T02:35:20.139Z,9.39
2022-10-01T02:38:25.072Z,9.30
2022-10-01T02:41:32.175Z,9.35
2022-10-01T02:44:40.842Z,9.34
2022-10-01T02:47:53.535Z,9.36
2022-10-01T02:51:12.343Z,9.29
2022-10-01T02:54:39.140Z,9.18
2022-10-01T02:57:43.227Z,9.12
2022-10-01T03:00:46.351Z,9.09
2022-10-01T03:03:49.323Z,9.12
2022-10-01T03:06:52.635Z,9.23
2022-10-01T03:09:55.847Z,9.39
2022-10-01T03:13:00.740Z,9.59
2022-10-01T03:16:03.701Z,9.79
2022-10-01T03:19:06.806Z,9.91
2022-10-01T03:22:12.434Z,9.97
2022-10-01T03:25:16.678Z,10.07
2022-10-01T03:28:20.256Z,10.21
2022-10-01T03:31:23.849Z,10.39
2022-10-01T03:34:27.137Z,10.54
2022-10-01T03:37:30.158Z,10.58
2022-10-01T03:40:34.707Z,10.74
2022-10-01T03:43:37.743Z,10.75
2022-10-01T03:46:40.801Z,10.79
2022-10-01T03:49:43.795Z,10.83
2022-10-01T03:52:47.735Z,10.75
2022-10-01T03:55:50.968Z,10.59
2022-10-01T03:58:54.276Z,10.48
2022-10-01T04:01:57.424Z,10.44
2022-10-01T04:05:00.447Z,10.35
2022-10-01T04:08:03.404Z,10.37
2022-10-01T04:11:07.620Z,10.38
2022-10-01T04:14:10.612Z,10.39
2022-10-01T04:17:14.182Z,10.48
2022-10-01T04:20:17.366Z,10.49
2022-10-01T04:23:20.497Z,10.48
2022-10-01T04:26:23.592Z,10.49
2022-10-01T04:29:26.554Z,10.53
2022-10-01T04:32:29.610Z,10.57
2022-10-01T04:35:32.991Z,10.56
2022-10-01T04:38:36.163Z,10.54
2022-10-01T04:41:39.505Z,10.50
2022-10-01T04:44:42.935Z,10.48
2022-10-01T04:47:50.843Z,10.44
2022-10-01T04:50:53.923Z,10.41
2022-10-01T04:53:56.958Z,10.44
2022-10-01T04:56:59.930Z,10.41
2022-10-01T05:00:04.153Z,10.46
2022-10-01T05:03:07.397Z,10.58
2022-10-01T05:06:10.359Z,10.75
2022-10-01T05:09:13.460Z,10.90
2022-10-01T05:12:17.676Z,11.09
2022-10-01T05:15:23.222Z,11.18
2022-10-01T05:18:26.312Z,11.30
2022-10-01T05:21:29.477Z,11.32
2022-10-01T05:24:32.519Z,11.35
2022-10-01T05:27:38.532Z,11.37
2022-10-01T05:30:41.726Z,11.36
2022-10-01T05:33:44.853Z,11.38
2022-10-01T05:36:47.919Z,11.45
2022-10-01T05:39:51.107Z,11.54
2022-10-01T05:42:55.408Z,11.62
2022-10-01T05:46:06.091Z,11.77
2022-10-01T05:49:09.343Z,11.82
2022-10-01T05:52:13.489Z,11.62
2022-10-01T05:55:16.648Z,11.38
2022-10-01T05:58:19.799Z,11.19
2022-10-01T06:01:22.864Z,11.06
2022-10-01T06:04:26.671Z,10.89
2022-10-01T06:07:32.545Z,10.88
2022-10-01T06:10:37.369Z,10.80
2022-10-01T06:13:45.723Z,10.67
2022-10-01T06:16:48.827Z,10.62
2022-10-01T06:19:54.982Z,10.59
2022-10-01T06:22:59.139Z,10.55
2022-10-01T06:26:06.219Z,10.55
2022-10-01T06:29:09.218Z,10.42
2022-10-01T06:32:14.723Z,10.28
2022-10-01T06:35:17.698Z,10.25
2022-10-01T06:38:22.378Z,10.16
2022-10-01T06:41:25.563Z,10.00
2022-10-01T06:44:28.693Z,9.79
2022-10-01T06:47:31.766Z,9.68
2022-10-01T06:50:35.586Z,9.57
2022-10-01T06:53:38.633Z,9.51
2022-10-01T06:56:41.699Z,9.50
2022-10-01T06:59:44.779Z,9.43
2022-10-01T07:02:48.089Z,9.42
2022-10-01T07:05:51.484Z,9.40
2022-10-01T07:08:54.575Z,9.27
2022-10-01T07:11:58.065Z,9.21
2022-10-01T07:15:01.509Z,9.07
2022-10-01T07:18:05.264Z,8.98
2022-10-01T07:21:08.395Z,8.92
2022-10-01T07:24:11.490Z,8.83
2022-10-01T07:27:15.384Z,8.73
2022-10-01T07:30:18.573Z,8.65
2022-10-01T07:33:21.696Z,8.53
2022-10-01T07:36:25.223Z,8.38
2022-10-01T07:39:28.243Z,8.28
2022-10-01T07:42:32.012Z,8.30
2022-10-01T07:45:35.258Z,8.28
2022-10-01T07:48:38.405Z,8.33
2022-10-01T07:51:44.069Z,8.31
2022-10-01T07:54:48.665Z,8.32
2022-10-01T07:57:53.475Z,8.36
2022-10-01T08:00:59.045Z,8.54
2022-10-01T08:04:22.264Z,8.52
2022-10-01T08:07:25.684Z,8.57
2022-10-01T08:10:29.472Z,8.63
2022-10-01T08:13:32.639Z,8.67
2022-10-01T08:16:37.689Z,8.65
2022-10-01T08:19:40.867Z,8.68
2022-10-01T08:22:43.943Z,8.73
2022-10-01T08:25:48.509Z,8.69
2022-10-01T08:28:51.930Z,8.64
2022-10-01T08:31:55.021Z,8.55
2022-10-01T08:35:00.498Z,8.51
2022-10-01T08:38:05.781Z,8.47
2022-10-01T08:41:23.393Z,8.43
2022-10-01T08:44:41.947Z,8.36
2022-10-01T08:47:56.314Z,8.31
2022-10-01T08:51:08.947Z,8.25
2022-10-01T08:54:33.027Z,8.18
2022-10-01T08:57:43.737Z,8.13
2022-10-01T09:00:50.602Z,8.06
2022-10-01T09:03:54.777Z,7.99
2022-10-01T09:07:11.923Z,7.98
2022-10-01T09:10:26.201Z,7.96
2022-10-01T09:14:00.395Z,7.93
2022-10-01T09:17:16.579Z,7.89
2022-10-01T09:20:32.786Z,7.81
2022-10-01T09:23:45.479Z,7.79
2022-10-01T09:26:52.168Z,7.72
2022-10-01T09:30:01.757Z,7.71
2022-10-01T09:33:18.828Z,7.69
2022-10-01T09:36:37.913Z,7.69
2022-10-01T09:40:02.387Z,7.63
2022-10-01T09:43:09.180Z,7.56
2022-10-01T09:46:18.139Z,7.49
2022-10-01T09:49:24.267Z,7.41
2022-10-01T09:52:38.953Z,7.26
2022-10-01T09:55:48.612Z,7.18
2022-10-01T09:58:57.015Z,7.09
2022-10-01T10:02:02.918Z,7.05
2022-10-01T10:05:18.015Z,6.96
2022-10-01T10:08:29.589Z,6.98
2022-10-01T10:11:34.405Z,6.87
2022-10-01T10:14:45.432Z,6.82
2022-10-01T10:17:53.637Z,6.80
2022-10-01T10:20:58.430Z,6.77
2022-10-01T10:24:05.053Z,6.69
2022-10-01T10:27:22.973Z,6.70
2022-10-01T10:30:26.978Z,6.65
2022-10-01T10:33:30.119Z,6.64
2022-10-01T10:36:36.770Z,6.66
2022-10-01T10:39:42.564Z,6.59
2022-10-01T10:42:51.558Z,6.57
2022-10-01T10:46:11.143Z,6.50
2022-10-01T10:49:33.365Z,6.48
2022-10-01T10:52:38.861Z,6.45
2022-10-01T10:55:54.031Z,6.31
2022-10-01T10:59:10.376Z,6.18
2022-10-01T11:02:21.889Z,6.22
2022-10-01T11:05:32.791Z,6.18
2022-10-01T11:08:36.511Z,6.09
2022-10-01T11:11:46.310Z,6.13
2022-10-01T11:15:36.008Z,6.12
2022-10-01T11:18:56.681Z,6.10
2022-10-01T11:22:02.451Z,6.09
2022-10-01T11:25:19.519Z,6.12
2022-10-01T11:28:30.106Z,6.03
2022-10-01T11:31:47.719Z,5.92
2022-10-01T11:34:50.952Z,5.79
2022-10-01T11:38:24.829Z,5.73
2022-10-01T11:41:47.156Z,5.58
2022-10-01T11:45:05.289Z,5.39
2022-10-01T11:48:27.400Z,5.22
2022-10-01T11:51:43.817Z,5.11
2022-10-01T11:54:57.081Z,5.03
2022-10-01T11:58:53.214Z,4.94
2022-10-01T12:02:40.966Z,4.78
2022-10-01T12:05:44.520Z,4.70
2022-10-01T12:08:55.787Z,4.64
2022-10-01T12:12:07.391Z,4.56
2022-10-01T12:15:19.928Z,4.47
2022-10-01T12:18:33.765Z,4.44
2022-10-01T12:22:04.439Z,4.39
2022-10-01T12:25:13.979Z,4.29
2022-10-01T12:28:24.578Z,4.24
2022-10-01T12:31:56.892Z,4.18
2022-10-01T12:35:27.094Z,4.13
2022-10-01T12:38:58.262Z,4.09
2022-10-01T12:42:31.884Z,4.05
2022-10-01T12:45:44.629Z,4.02
2022-10-01T12:49:14.340Z,3.98
2022-10-01T12:52:34.367Z,3.96
2022-10-01T12:56:00.401Z,3.90
2022-10-01T12:59:09.000Z,3.87
2022-10-01T13:02:26.331Z,3.78
2022-10-01T13:05:46.948Z,3.72
2022-10-01T13:08:58.414Z,3.65
2022-10-01T13:12:29.637Z,3.57
2022-10-01T13:15:40.047Z,3.53
2022-10-01T13:18:55.076Z,3.48
2022-10-01T13:22:25.185Z,3.47
2022-10-01T13:26:06.723Z,3.48
2022-10-01T13:29:50.435Z,3.48
2022-10-01T13:32:59.045Z,3.44
2022-10-01T13:36:05.856Z,3.44
2022-10-01T13:39:20.670Z,3.43
2022-10-01T13:42:28.104Z,3.39
2022-10-01T13:45:34.913Z,3.35
2022-10-01T13:48:47.626Z,3.27
2022-10-01T13:51:52.604Z,3.22
2022-10-01T13:54:58.019Z,3.19
2022-10-01T13:58:28.118Z,3.20
2022-10-01T14:01:40.598Z,3.29
2022-10-01T14:04:46.053Z,3.21
2022-10-01T14:07:51.708Z,3.25
2022-10-01T14:11:21.908Z,3.20
2022-10-01T14:14:47.481Z,3.11
2022-10-01T14:17:53.435Z,3.09
2022-10-01T14:20:59.375Z,2.99
2022-10-01T14:24:26.881Z,2.93
2022-10-01T14:27:44.371Z,2.82
2022-10-01T14:30:55.940Z,2.75
2022-10-01T14:34:10.880Z,2.73
2022-10-01T14:37:17.756Z,2.69
2022-10-01T14:40:25.206Z,2.63
2022-10-01T14:43:31.126Z,2.55
2022-10-01T14:46:36.979Z,2.55
2022-10-01T14:49:40.479Z,2.52
2022-10-01T14:52:48.897Z,2.52
2022-10-01T14:55:56.205Z,2.47
2022-10-01T14:59:06.160Z,2.43
2022-10-01T15:02:23.592Z,2.46
2022-10-01T15:05:33.383Z,2.51
2022-10-01T15:08:47.889Z,2.59
2022-10-01T15:11:52.734Z,2.60
2022-10-01T15:14:55.493Z,2.61
2022-10-01T15:17:58.589Z,2.54
2022-10-01T15:21:07.801Z,2.54
2022-10-01T15:24:22.995Z,2.53
2022-10-01T15:27:26.698Z,2.48
2022-10-01T15:30:30.422Z,2.48
2022-10-01T15:33:36.754Z,2.47
2022-10-01T15:36:41.911Z,2.42
2022-10-01T15:39:49.919Z,2.37
2022-10-01T15:43:13.041Z,2.34
2022-10-01T15:46:29.625Z,2.34
2022-10-01T15:49:32.796Z,2.32
2022-10-01T15:53:00.644Z,2.29
2022-10-01T15:56:11.379Z,2.27
2022-10-01T15:59:20.275Z,2.21
2022-10-01T16:02:30.928Z,2.08
2022-10-01T16:05:39.054Z,2.22
2022-10-01T16:09:06.761Z,2.14
2022-10-01T16:12:12.772Z,2.14
2022-10-01T16:15:28.773Z,2.11
2022-10-01T16:18:33.510Z,2.11
2022-10-01T16:21:41.287Z,2.06
2022-10-01T16:24:49.213Z,2.04
2022-10-01T16:27:59.159Z,1.98
2022-10-01T16:31:04.591Z,1.96
2022-10-01T16:34:12.947Z,1.89
2022-10-01T16:37:16.298Z,1.85
2022-10-01T16:40:21.616Z,1.83
2022-10-01T16:43:24.973Z,1.83
2022-10-01T16:46:29.161Z,1.80
2022-10-01T16:49:32.361Z,1.77
2022-10-01T16:52:35.404Z,1.69
2022-10-01T16:55:38.625Z,1.60
2022-10-01T16:58:43.761Z,1.61
2022-10-01T17:01:47.026Z,1.56
2022-10-01T17:04:50.062Z,1.54
2022-10-01T17:08:01.621Z,1.46
2022-10-01T17:11:06.942Z,1.41
2022-10-01T17:14:19.172Z,1.37
2022-10-01T17:17:22.164Z,1.33
2022-10-01T17:20:27.229Z,1.26
2022-10-01T17:23:30.266Z,1.24
2022-10-01T17:26:33.425Z,1.28
2022-10-01T17:29:36.602Z,1.24
2022-10-01T17:32:43.670Z,1.23
2022-10-01T17:35:55.221Z,1.21
2022-10-01T17:38:58.790Z,1.19
2022-10-01T17:42:01.947Z,1.15
2022-10-01T17:45:07.843Z,1.13
2022-10-01T17:48:10.893Z,1.13
2022-10-01T17:51:17.662Z,1.11
2022-10-01T17:54:21.764Z,1.06
2022-10-01T17:57:25.420Z,1.02
2022-10-01T18:00:28.563Z,1.05
2022-10-01T18:03:31.619Z,1.05
2022-10-01T18:06:34.841Z,1.03
2022-10-01T18:09:38.156Z,1.01
2022-10-01T18:12:41.615Z,1.01
2022-10-01T18:15:44.646Z,0.94
2022-10-01T18:22:14.876Z,0.91
2022-10-01T18:25:19.865Z,0.85
2022-10-01T18:28:24.065Z,0.81
2022-10-01T18:31:30.093Z,0.76
2022-10-01T18:34:40.358Z,0.74
2022-10-01T18:37:47.082Z,0.71
2022-10-01T18:40:57.865Z,0.68
2022-10-01T18:44:01.042Z,0.65
2022-10-01T18:47:13.001Z,0.64
2022-10-01T18:50:47.766Z,0.64
2022-10-01T18:54:02.698Z,0.65
2022-10-01T18:57:24.634Z,0.66
2022-10-01T19:00:36.564Z,0.64
2022-10-01T19:04:00.675Z,0.61
2022-10-01T19:07:20.606Z,0.61
2022-10-01T19:10:59.026Z,0.63
2022-10-01T19:14:05.115Z,0.61
2022-10-01T19:17:30.757Z,0.66
2022-10-01T19:20:43.761Z,0.68
2022-10-01T19:24:21.852Z,0.68
2022-10-01T19:27:49.923Z,0.59
2022-10-01T19:31:01.873Z,0.59
2022-10-01T19:34:18.668Z,0.57
2022-10-01T19:37:35.389Z,0.54
2022-10-01T19:41:07.576Z,0.53
2022-10-01T19:44:32.472Z,0.46
2022-10-01T19:48:13.502Z,0.48
2022-10-01T19:51:21.897Z,0.48
2022-10-01T19:54:32.509Z,0.50
2022-10-01T19:57:39.663Z,0.44
2022-10-01T20:00:43.318Z,0.38
2022-10-01T20:03:58.176Z,0.34
2022-10-01T20:07:25.449Z,0.30
2022-10-01T20:10:37.854Z,0.24
2022-10-01T20:13:49.924Z,0.22
2022-10-01T20:16:54.357Z,0.21
2022-10-01T20:20:04.522Z,0.19
2022-10-01T20:23:33.861Z,0.17
2022-10-01T20:26:52.759Z,0.16
2022-10-01T20:30:24.452Z,0.16
2022-10-01T20:33:59.936Z,0.11
2022-10-01T20:37:21.231Z,0.11
2022-10-01T20:40:50.204Z,0.09
2022-10-01T20:44:06.419Z,0.04
2022-10-01T20:47:33.720Z,0.02
2022-10-01T20:50:51.625Z,-0.01
2022-10-01T20:53:57.631Z,0.06
2022-10-01T20:57:20.987Z,0.16
2022-10-01T21:00:27.023Z,0.20
2022-10-01T21:03:44.888Z,0.23
2022-10-01T21:06:51.227Z,0.28
2022-10-01T21:09:58.123Z,0.24
2022-10-01T21:13:12.268Z,0.24
2022-10-01T21:16:29.087Z,0.23
2022-10-01T21:19:52.264Z,0.19
2022-10-01T21:23:22.203Z,0.17
2022-10-01T21:26:40.416Z,0.13
2022-10-01T21:30:15.610Z,0.11
2022-10-01T21:33:54.783Z,0.08
2022-10-01T21:37:20.353Z,0.03
2022-10-01T21:40:26.163Z,0.03
2022-10-01T21:43:31.859Z,-0.04
2022-10-01T21:47:02.859Z,-0.15
2022-10-01T21:50:31.530Z,-0.25
2022-10-01T21:54:03.443Z,-0.33
2022-10-01T21:57:06.618Z,-0.35
2022-10-01T22:00:20.190Z,-0.39
2022-10-01T22:03:25.830Z,-0.44
2022-10-01T22:06:37.009Z,-0.43
2022-10-01T22:09:43.700Z,-0.41
2022-10-01T22:12:52.448Z,-0.42
2022-10-01T22:16:14.546Z,-0.39
2022-10-01T22:19:26.379Z,-0.40
2022-10-01T22:22:37.657Z,-0.43
2022-10-01T22:26:11.858Z,-0.40
2022-10-01T22:29:23.093Z,-0.37
2022-10-01T22:32:30.195Z,-0.32
2022-10-01T22:35:45.302Z,-0.34
2022-10-01T22:38:56.428Z,-0.32
2022-10-01T22:42:15.944Z,-0.28
2022-10-01T22:45:19.181Z,-0.29
2022-10-01T22:48:34.425Z,-0.29
2022-10-01T22:51:59.879Z,-0.27
2022-10-01T22:55:02.580Z,-0.19
2022-10-01T22:58:42.753Z,-0.14
2022-10-01T23:02:00.636Z,-0.11
2022-10-01T23:05:09.849Z,-0.04
2022-10-01T23:08:24.764Z,0.01
2022-10-01T23:11:37.755Z,0.03
2022-10-01T23:14:50.562Z,0.09
2022-10-01T23:18:17.989Z,0.16
2022-10-01T23:21:29.802Z,0.30
2022-10-01T23:25:19.617Z,0.94
2022-10-01T23:28:25.673Z,3.73
2022-10-01T23:31:44.859Z,6.45
2022-10-01T23:35:00.613Z,8.76
2022-10-01T23:38:22.356Z,10.64
2022-10-01T23:41:36.027Z,11.43
2022-10-01T23:44:56.671Z,11.22
2022-10-01T23:48:18.313Z,10.13
2022-10-01T23:51:43.804Z,9.04
2022-10-01T23:54:52.749Z,8.41
2022-10-01T23:58:03.202Z,7.40
